sensor_id;sensor_type;location;lat;lon;timestamp;temperature;humidity
23143;DHT22;11740;51.168;4.112;2023-05-21T00:00:24;17.60;1.00
23143;DHT22;11740;51.168;4.112;2023-05-21T00:02:51;17.50;1.00
23143;DHT22;11740;51.168;4.112;2023-05-21T00:05:18;17.50;1.00
23143;DHT22;11740;51.168;4.112;2023-05-21T00:07:47;17.40;1.00
23143;DHT22;11740;51.168;4.112;2023-05-21T00:10:13;17.40;1.00
23143;DHT22;11740;51.168;4.112;2023-05-21T00:12:40;17.40;1.00
23143;DHT22;11740;51.168;4.112;2023-05-21T00:15:07;17.30;1.00
23143;DHT22;11740;51.168;4.112;2023-05-21T00:17:34;17.30;1.00
23143;DHT22;11740;51.168;4.112;2023-05-21T00:20:03;17.20;1.00
23143;DHT22;11740;51.168;4.112;2023-05-21T00:22:34;17.20;1.00
23143;DHT22;11740;51.168;4.112;2023-05-21T00:25:02;17.10;1.00
23143;DHT22;11740;51.168;4.112;2023-05-21T00:27:29;17.10;1.00
23143;DHT22;11740;51.168;4.112;2023-05-21T00:29:56;17.00;1.00
23143;DHT22;11740;51.168;4.112;2023-05-21T00:32:23;17.00;1.00
23143;DHT22;11740;51.168;4.112;2023-05-21T00:34:50;16.90;1.00
23143;DHT22;11740;51.168;4.112;2023-05-21T00:37:17;16.90;1.00
23143;DHT22;11740;51.168;4.112;2023-05-21T00:39:44;16.90;1.00
23143;DHT22;11740;51.168;4.112;2023-05-21T00:42:11;16.80;1.00
23143;DHT22;11740;51.168;4.112;2023-05-21T00:44:38;16.80;1.00
23143;DHT22;11740;51.168;4.112;2023-05-21T00:47:05;16.80;1.00
23143;DHT22;11740;51.168;4.112;2023-05-21T00:49:33;16.70;1.00
23143;DHT22;11740;51.168;4.112;2023-05-21T00:52:00;16.60;1.00
23143;DHT22;11740;51.168;4.112;2023-05-21T00:54:29;16.60;1.00
23143;DHT22;11740;51.168;4.112;2023-05-21T00:56:56;16.60;1.00
23143;DHT22;11740;51.168;4.112;2023-05-21T00:59:23;16.50;1.00
23143;DHT22;11740;51.168;4.112;2023-05-21T01:01:51;16.40;1.00
23143;DHT22;11740;51.168;4.112;2023-05-21T01:04:22;16.40;1.00
23143;DHT22;11740;51.168;4.112;2023-05-21T01:06:49;16.30;1.00
23143;DHT22;11740;51.168;4.112;2023-05-21T01:09:18;16.30;1.00
23143;DHT22;11740;51.168;4.112;2023-05-21T01:11:46;16.20;1.00
23143;DHT22;11740;51.168;4.112;2023-05-21T01:14:16;16.20;1.00
23143;DHT22;11740;51.168;4.112;2023-05-21T01:16:46;16.10;1.00
23143;DHT22;11740;51.168;4.112;2023-05-21T01:19:16;16.10;1.00
23143;DHT22;11740;51.168;4.112;2023-05-21T01:21:46;16.10;1.00
23143;DHT22;11740;51.168;4.112;2023-05-21T01:24:17;16.00;1.00
23143;DHT22;11740;51.168;4.112;2023-05-21T01:26:44;16.00;1.00
23143;DHT22;11740;51.168;4.112;2023-05-21T01:29:12;16.00;1.00
23143;DHT22;11740;51.168;4.112;2023-05-21T01:31:45;15.90;1.00
23143;DHT22;11740;51.168;4.112;2023-05-21T01:34:18;15.90;1.00
23143;DHT22;11740;51.168;4.112;2023-05-21T01:36:49;15.80;1.00
23143;DHT22;11740;51.168;4.112;2023-05-21T01:39:33;15.80;1.00
23143;DHT22;11740;51.168;4.112;2023-05-21T01:42:05;15.80;1.00
23143;DHT22;11740;51.168;4.112;2023-05-21T01:44:35;15.70;1.00
23143;DHT22;11740;51.168;4.112;2023-05-21T01:47:03;15.60;1.00
23143;DHT22;11740;51.168;4.112;2023-05-21T01:49:30;15.60;1.00
23143;DHT22;11740;51.168;4.112;2023-05-21T01:51:57;15.60;1.00
23143;DHT22;11740;51.168;4.112;2023-05-21T01:54:24;15.50;1.00
23143;DHT22;11740;51.168;4.112;2023-05-21T01:56:50;15.40;1.00
23143;DHT22;11740;51.168;4.112;2023-05-21T01:59:17;15.40;1.00
23143;DHT22;11740;51.168;4.112;2023-05-21T02:01:45;15.40;1.00
23143;DHT22;11740;51.168;4.112;2023-05-21T02:04:12;15.40;1.00
23143;DHT22;11740;51.168;4.112;2023-05-21T02:06:39;15.40;1.00
23143;DHT22;11740;51.168;4.112;2023-05-21T02:09:07;15.30;1.00
23143;DHT22;11740;51.168;4.112;2023-05-21T02:11:34;15.20;1.00
23143;DHT22;11740;51.168;4.112;2023-05-21T02:14:01;15.10;1.00
23143;DHT22;11740;51.168;4.112;2023-05-21T02:16:29;15.10;1.00
23143;DHT22;11740;51.168;4.112;2023-05-21T02:18:56;15.10;1.00
23143;DHT22;11740;51.168;4.112;2023-05-21T02:21:23;15.10;1.00
23143;DHT22;11740;51.168;4.112;2023-05-21T02:23:50;15.00;1.00
23143;DHT22;11740;51.168;4.112;2023-05-21T02:26:17;15.00;1.00
23143;DHT22;11740;51.168;4.112;2023-05-21T02:28:43;14.90;1.00
23143;DHT22;11740;51.168;4.112;2023-05-21T02:31:10;14.90;1.00
23143;DHT22;11740;51.168;4.112;2023-05-21T02:33:38;14.90;1.00
23143;DHT22;11740;51.168;4.112;2023-05-21T02:36:06;14.80;1.00
23143;DHT22;11740;51.168;4.112;2023-05-21T02:38:40;14.80;1.00
23143;DHT22;11740;51.168;4.112;2023-05-21T02:41:10;14.70;1.00
23143;DHT22;11740;51.168;4.112;2023-05-21T02:43:37;14.70;1.00
23143;DHT22;11740;51.168;4.112;2023-05-21T02:46:05;14.70;1.00
23143;DHT22;11740;51.168;4.112;2023-05-21T02:48:32;14.60;1.00
23143;DHT22;11740;51.168;4.112;2023-05-21T02:50:58;14.60;1.00
23143;DHT22;11740;51.168;4.112;2023-05-21T02:53:25;14.60;1.00
23143;DHT22;11740;51.168;4.112;2023-05-21T02:55:52;14.50;1.00
23143;DHT22;11740;51.168;4.112;2023-05-21T02:58:19;14.50;1.00
23143;DHT22;11740;51.168;4.112;2023-05-21T03:00:48;14.50;1.00
23143;DHT22;11740;51.168;4.112;2023-05-21T03:03:15;14.40;1.00
23143;DHT22;11740;51.168;4.112;2023-05-21T03:05:42;14.40;1.00
23143;DHT22;11740;51.168;4.112;2023-05-21T03:08:11;14.40;1.00
23143;DHT22;11740;51.168;4.112;2023-05-21T03:10:38;14.30;1.00
23143;DHT22;11740;51.168;4.112;2023-05-21T03:13:04;14.30;1.00
23143;DHT22;11740;51.168;4.112;2023-05-21T03:15:35;14.30;1.00
23143;DHT22;11740;51.168;4.112;2023-05-21T03:18:05;14.20;1.00
23143;DHT22;11740;51.168;4.112;2023-05-21T03:20:31;14.20;1.00
23143;DHT22;11740;51.168;4.112;2023-05-21T03:22:58;14.10;1.00
23143;DHT22;11740;51.168;4.112;2023-05-21T03:25:25;14.10;1.00
23143;DHT22;11740;51.168;4.112;2023-05-21T03:27:52;14.10;1.00
23143;DHT22;11740;51.168;4.112;2023-05-21T03:30:19;14.10;1.00
23143;DHT22;11740;51.168;4.112;2023-05-21T03:32:46;14.10;1.00
23143;DHT22;11740;51.168;4.112;2023-05-21T03:35:15;14.00;1.00
23143;DHT22;11740;51.168;4.112;2023-05-21T03:37:42;14.00;1.00
23143;DHT22;11740;51.168;4.112;2023-05-21T03:40:09;14.00;1.00
23143;DHT22;11740;51.168;4.112;2023-05-21T03:42:36;13.90;1.00
23143;DHT22;11740;51.168;4.112;2023-05-21T03:45:02;13.90;1.00
23143;DHT22;11740;51.168;4.112;2023-05-21T03:47:29;13.90;1.00
23143;DHT22;11740;51.168;4.112;2023-05-21T03:49:56;13.80;1.00
23143;DHT22;11740;51.168;4.112;2023-05-21T03:52:23;13.80;1.00
23143;DHT22;11740;51.168;4.112;2023-05-21T03:54:50;13.80;1.00
23143;DHT22;11740;51.168;4.112;2023-05-21T03:57:17;13.70;1.00
23143;DHT22;11740;51.168;4.112;2023-05-21T03:59:43;13.70;1.00
23143;DHT22;11740;51.168;4.112;2023-05-21T04:02:10;13.70;1.00
23143;DHT22;11740;51.168;4.112;2023-05-21T04:04:37;13.70;1.00
23143;DHT22;11740;51.168;4.112;2023-05-21T04:07:04;13.70;1.00
23143;DHT22;11740;51.168;4.112;2023-05-21T04:09:31;13.60;1.00
23143;DHT22;11740;51.168;4.112;2023-05-21T04:12:00;13.60;1.00
23143;DHT22;11740;51.168;4.112;2023-05-21T04:14:26;13.60;1.00
23143;DHT22;11740;51.168;4.112;2023-05-21T04:16:53;13.60;1.00
23143;DHT22;11740;51.168;4.112;2023-05-21T04:19:20;13.60;1.00
23143;DHT22;11740;51.168;4.112;2023-05-21T04:21:47;13.50;1.00
23143;DHT22;11740;51.168;4.112;2023-05-21T04:24:14;13.50;1.00
23143;DHT22;11740;51.168;4.112;2023-05-21T04:26:41;13.50;1.00
23143;DHT22;11740;51.168;4.112;2023-05-21T04:29:08;13.50;1.00
23143;DHT22;11740;51.168;4.112;2023-05-21T04:31:35;13.50;1.00
23143;DHT22;11740;51.168;4.112;2023-05-21T04:34:02;13.50;3.00
23143;DHT22;11740;51.168;4.112;2023-05-21T04:36:29;13.40;4.40
23143;DHT22;11740;51.168;4.112;2023-05-21T04:38:56;13.40;78.30
23143;DHT22;11740;51.168;4.112;2023-05-21T04:41:23;13.30;99.90
23143;DHT22;11740;51.168;4.112;2023-05-21T04:43:49;13.30;84.80
23143;DHT22;11740;51.168;4.112;2023-05-21T04:46:20;13.40;99.90
23143;DHT22;11740;51.168;4.112;2023-05-21T04:48:53;13.30;99.90
23143;DHT22;11740;51.168;4.112;2023-05-21T04:51:21;13.40;99.90
23143;DHT22;11740;51.168;4.112;2023-05-21T04:53:50;13.30;99.90
23143;DHT22;11740;51.168;4.112;2023-05-21T04:56:17;13.30;99.90
23143;DHT22;11740;51.168;4.112;2023-05-21T04:58:44;13.30;99.90
23143;DHT22;11740;51.168;4.112;2023-05-21T05:01:16;13.40;99.90
23143;DHT22;11740;51.168;4.112;2023-05-21T05:03:44;13.40;99.90
23143;DHT22;11740;51.168;4.112;2023-05-21T05:06:11;13.40;99.90
23143;DHT22;11740;51.168;4.112;2023-05-21T05:08:37;13.40;99.90
23143;DHT22;11740;51.168;4.112;2023-05-21T05:11:04;13.40;99.90
23143;DHT22;11740;51.168;4.112;2023-05-21T05:13:32;13.40;99.90
23143;DHT22;11740;51.168;4.112;2023-05-21T05:15:59;13.40;99.90
23143;DHT22;11740;51.168;4.112;2023-05-21T05:18:27;13.40;99.90
23143;DHT22;11740;51.168;4.112;2023-05-21T05:20:54;13.40;99.90
23143;DHT22;11740;51.168;4.112;2023-05-21T05:23:21;13.40;99.90
23143;DHT22;11740;51.168;4.112;2023-05-21T05:25:48;13.40;99.90
23143;DHT22;11740;51.168;4.112;2023-05-21T05:28:15;13.40;99.90
23143;DHT22;11740;51.168;4.112;2023-05-21T05:30:41;13.50;99.90
23143;DHT22;11740;51.168;4.112;2023-05-21T05:33:08;13.50;99.90
23143;DHT22;11740;51.168;4.112;2023-05-21T05:35:35;13.50;99.90
23143;DHT22;11740;51.168;4.112;2023-05-21T05:38:02;13.60;99.90
23143;DHT22;11740;51.168;4.112;2023-05-21T05:40:29;13.60;99.90
23143;DHT22;11740;51.168;4.112;2023-05-21T05:42:56;13.60;99.90
23143;DHT22;11740;51.168;4.112;2023-05-21T05:45:23;13.60;99.90
23143;DHT22;11740;51.168;4.112;2023-05-21T05:47:51;13.70;99.90
23143;DHT22;11740;51.168;4.112;2023-05-21T05:50:18;13.70;99.90
23143;DHT22;11740;51.168;4.112;2023-05-21T05:52:46;13.70;99.90
23143;DHT22;11740;51.168;4.112;2023-05-21T05:55:13;13.70;99.90
23143;DHT22;11740;51.168;4.112;2023-05-21T05:57:40;13.80;99.90
23143;DHT22;11740;51.168;4.112;2023-05-21T06:00:10;13.90;99.90
23143;DHT22;11740;51.168;4.112;2023-05-21T06:02:37;13.90;1.00
23143;DHT22;11740;51.168;4.112;2023-05-21T06:05:05;14.00;99.90
23143;DHT22;11740;51.168;4.112;2023-05-21T06:07:32;14.00;1.00
23143;DHT22;11740;51.168;4.112;2023-05-21T06:09:59;14.00;99.90
23143;DHT22;11740;51.168;4.112;2023-05-21T06:12:26;14.10;1.00
23143;DHT22;11740;51.168;4.112;2023-05-21T06:14:52;14.10;1.00
23143;DHT22;11740;51.168;4.112;2023-05-21T06:17:19;14.10;1.00
23143;DHT22;11740;51.168;4.112;2023-05-21T06:19:46;14.20;1.00
23143;DHT22;11740;51.168;4.112;2023-05-21T06:22:13;14.20;1.00
23143;DHT22;11740;51.168;4.112;2023-05-21T06:24:40;14.20;1.00
23143;DHT22;11740;51.168;4.112;2023-05-21T06:27:07;14.30;1.00
23143;DHT22;11740;51.168;4.112;2023-05-21T06:29:34;14.30;1.00
23143;DHT22;11740;51.168;4.112;2023-05-21T06:32:01;14.40;1.00
23143;DHT22;11740;51.168;4.112;2023-05-21T06:34:28;14.40;1.00
23143;DHT22;11740;51.168;4.112;2023-05-21T06:36:55;14.50;1.00
23143;DHT22;11740;51.168;4.112;2023-05-21T06:39:22;14.50;1.00
23143;DHT22;11740;51.168;4.112;2023-05-21T06:41:50;14.60;1.00
23143;DHT22;11740;51.168;4.112;2023-05-21T06:44:16;14.70;1.00
23143;DHT22;11740;51.168;4.112;2023-05-21T06:46:43;14.70;1.00
23143;DHT22;11740;51.168;4.112;2023-05-21T06:49:11;14.80;1.00
23143;DHT22;11740;51.168;4.112;2023-05-21T06:51:40;14.90;1.00
23143;DHT22;11740;51.168;4.112;2023-05-21T06:54:06;14.90;1.00
23143;DHT22;11740;51.168;4.112;2023-05-21T06:56:33;14.90;1.00
23143;DHT22;11740;51.168;4.112;2023-05-21T06:59:00;14.90;1.00
23143;DHT22;11740;51.168;4.112;2023-05-21T07:01:27;14.90;1.00
23143;DHT22;11740;51.168;4.112;2023-05-21T07:03:54;15.00;1.00
23143;DHT22;11740;51.168;4.112;2023-05-21T07:06:21;15.00;1.00
23143;DHT22;11740;51.168;4.112;2023-05-21T07:08:47;15.00;1.00
23143;DHT22;11740;51.168;4.112;2023-05-21T07:11:15;15.00;1.00
23143;DHT22;11740;51.168;4.112;2023-05-21T07:13:42;15.10;1.00
23143;DHT22;11740;51.168;4.112;2023-05-21T07:16:08;15.10;1.00
23143;DHT22;11740;51.168;4.112;2023-05-21T07:18:35;15.20;1.00
23143;DHT22;11740;51.168;4.112;2023-05-21T07:21:03;15.20;1.00
23143;DHT22;11740;51.168;4.112;2023-05-21T07:23:30;15.30;1.00
23143;DHT22;11740;51.168;4.112;2023-05-21T07:25:56;15.30;1.00
23143;DHT22;11740;51.168;4.112;2023-05-21T07:28:23;15.40;1.00
23143;DHT22;11740;51.168;4.112;2023-05-21T07:30:50;15.40;1.00
23143;DHT22;11740;51.168;4.112;2023-05-21T07:33:17;15.50;1.00
23143;DHT22;11740;51.168;4.112;2023-05-21T07:35:46;15.60;1.00
23143;DHT22;11740;51.168;4.112;2023-05-21T07:38:13;15.70;1.00
23143;DHT22;11740;51.168;4.112;2023-05-21T07:40:39;15.70;1.00
23143;DHT22;11740;51.168;4.112;2023-05-21T07:43:06;15.80;1.00
23143;DHT22;11740;51.168;4.112;2023-05-21T07:45:33;15.90;1.00
23143;DHT22;11740;51.168;4.112;2023-05-21T07:48:00;15.90;1.00
23143;DHT22;11740;51.168;4.112;2023-05-21T07:50:28;15.90;1.00
23143;DHT22;11740;51.168;4.112;2023-05-21T07:52:55;15.90;1.00
23143;DHT22;11740;51.168;4.112;2023-05-21T07:55:21;16.00;1.00
23143;DHT22;11740;51.168;4.112;2023-05-21T07:57:48;16.10;1.00
23143;DHT22;11740;51.168;4.112;2023-05-21T08:00:17;16.20;1.00
23143;DHT22;11740;51.168;4.112;2023-05-21T08:02:44;16.20;1.00
23143;DHT22;11740;51.168;4.112;2023-05-21T08:05:11;16.30;1.00
23143;DHT22;11740;51.168;4.112;2023-05-21T08:07:38;16.50;1.00
23143;DHT22;11740;51.168;4.112;2023-05-21T08:10:05;16.60;99.90
23143;DHT22;11740;51.168;4.112;2023-05-21T08:12:32;16.70;99.90
23143;DHT22;11740;51.168;4.112;2023-05-21T08:14:59;16.80;99.90
23143;DHT22;11740;51.168;4.112;2023-05-21T08:17:26;16.80;99.90
23143;DHT22;11740;51.168;4.112;2023-05-21T08:19:56;17.00;99.90
23143;DHT22;11740;51.168;4.112;2023-05-21T08:22:22;17.20;99.90
23143;DHT22;11740;51.168;4.112;2023-05-21T08:24:49;17.40;99.90
23143;DHT22;11740;51.168;4.112;2023-05-21T08:27:16;17.60;99.90
23143;DHT22;11740;51.168;4.112;2023-05-21T08:29:43;17.90;99.90
23143;DHT22;11740;51.168;4.112;2023-05-21T08:32:10;18.00;99.90
23143;DHT22;11740;51.168;4.112;2023-05-21T08:34:37;18.10;99.90
23143;DHT22;11740;51.168;4.112;2023-05-21T08:37:04;18.30;99.90
23143;DHT22;11740;51.168;4.112;2023-05-21T08:39:30;18.40;99.90
23143;DHT22;11740;51.168;4.112;2023-05-21T08:42:01;18.40;99.90
23143;DHT22;11740;51.168;4.112;2023-05-21T08:44:33;18.50;99.90
23143;DHT22;11740;51.168;4.112;2023-05-21T08:47:00;18.70;99.90
23143;DHT22;11740;51.168;4.112;2023-05-21T08:49:29;19.00;99.90
23143;DHT22;11740;51.168;4.112;2023-05-21T08:51:56;19.20;99.90
23143;DHT22;11740;51.168;4.112;2023-05-21T08:54:24;19.20;99.90
23143;DHT22;11740;51.168;4.112;2023-05-21T08:56:51;19.30;99.90
23143;DHT22;11740;51.168;4.112;2023-05-21T08:59:18;19.30;99.90
23143;DHT22;11740;51.168;4.112;2023-05-21T09:01:46;19.40;99.90
23143;DHT22;11740;51.168;4.112;2023-05-21T09:04:15;19.40;99.90
23143;DHT22;11740;51.168;4.112;2023-05-21T09:06:47;19.60;99.90
23143;DHT22;11740;51.168;4.112;2023-05-21T09:09:20;19.70;99.90
23143;DHT22;11740;51.168;4.112;2023-05-21T09:12:05;19.80;99.90
23143;DHT22;11740;51.168;4.112;2023-05-21T09:14:33;19.90;99.90
23143;DHT22;11740;51.168;4.112;2023-05-21T09:17:00;19.80;99.90
23143;DHT22;11740;51.168;4.112;2023-05-21T09:19:27;19.80;99.90
23143;DHT22;11740;51.168;4.112;2023-05-21T09:22:00;19.80;99.90
23143;DHT22;11740;51.168;4.112;2023-05-21T09:24:31;19.80;99.90
23143;DHT22;11740;51.168;4.112;2023-05-21T09:27:01;19.80;99.90
23143;DHT22;11740;51.168;4.112;2023-05-21T09:29:29;19.80;99.90
23143;DHT22;11740;51.168;4.112;2023-05-21T09:31:56;19.80;99.90
23143;DHT22;11740;51.168;4.112;2023-05-21T09:34:24;19.80;99.90
23143;DHT22;11740;51.168;4.112;2023-05-21T09:36:54;19.90;99.90
23143;DHT22;11740;51.168;4.112;2023-05-21T09:39:28;20.10;99.90
23143;DHT22;11740;51.168;4.112;2023-05-21T09:41:58;20.20;99.90
23143;DHT22;11740;51.168;4.112;2023-05-21T09:44:25;20.30;99.90
23143;DHT22;11740;51.168;4.112;2023-05-21T09:46:55;20.40;99.90
23143;DHT22;11740;51.168;4.112;2023-05-21T09:49:26;20.60;99.90
23143;DHT22;11740;51.168;4.112;2023-05-21T09:51:54;20.60;99.90
23143;DHT22;11740;51.168;4.112;2023-05-21T09:54:22;20.70;99.90
23143;DHT22;11740;51.168;4.112;2023-05-21T09:56:50;20.70;99.90
23143;DHT22;11740;51.168;4.112;2023-05-21T09:59:18;20.70;99.90
23143;DHT22;11740;51.168;4.112;2023-05-21T10:01:46;20.90;99.90
23143;DHT22;11740;51.168;4.112;2023-05-21T10:04:16;21.00;99.90
23143;DHT22;11740;51.168;4.112;2023-05-21T10:06:43;21.00;99.90
23143;DHT22;11740;51.168;4.112;2023-05-21T10:09:10;21.10;99.90
23143;DHT22;11740;51.168;4.112;2023-05-21T10:11:38;21.20;99.90
23143;DHT22;11740;51.168;4.112;2023-05-21T10:14:06;21.30;99.90
23143;DHT22;11740;51.168;4.112;2023-05-21T10:16:34;21.40;99.90
23143;DHT22;11740;51.168;4.112;2023-05-21T10:19:02;21.30;99.90
23143;DHT22;11740;51.168;4.112;2023-05-21T10:21:30;21.40;99.90
23143;DHT22;11740;51.168;4.112;2023-05-21T10:23:58;21.50;99.90
23143;DHT22;11740;51.168;4.112;2023-05-21T10:26:27;21.60;99.90
23143;DHT22;11740;51.168;4.112;2023-05-21T10:28:56;21.70;99.90
23143;DHT22;11740;51.168;4.112;2023-05-21T10:31:26;21.70;99.90
23143;DHT22;11740;51.168;4.112;2023-05-21T10:33:53;21.80;99.90
23143;DHT22;11740;51.168;4.112;2023-05-21T10:36:23;21.80;99.90
23143;DHT22;11740;51.168;4.112;2023-05-21T10:38:52;21.80;99.90
23143;DHT22;11740;51.168;4.112;2023-05-21T10:41:20;21.80;99.90
23143;DHT22;11740;51.168;4.112;2023-05-21T10:52:29;22.30;99.90
23143;DHT22;11740;51.168;4.112;2023-05-21T10:55:12;22.50;99.90
23143;DHT22;11740;51.168;4.112;2023-05-21T10:58:09;22.70;99.90
23143;DHT22;11740;51.168;4.112;2023-05-21T11:00:41;22.70;99.90
23143;DHT22;11740;51.168;4.112;2023-05-21T11:03:09;22.80;99.90
23143;DHT22;11740;51.168;4.112;2023-05-21T11:05:51;22.70;99.90
23143;DHT22;11740;51.168;4.112;2023-05-21T11:08:21;22.60;99.90
23143;DHT22;11740;51.168;4.112;2023-05-21T11:10:52;22.70;99.90
23143;DHT22;11740;51.168;4.112;2023-05-21T11:13:19;22.60;99.90
23143;DHT22;11740;51.168;4.112;2023-05-21T11:18:23;22.80;99.90
23143;DHT22;11740;51.168;4.112;2023-05-21T11:21:13;22.90;99.90
23143;DHT22;11740;51.168;4.112;2023-05-21T11:26:17;23.00;99.90
23143;DHT22;11740;51.168;4.112;2023-05-21T11:28:44;23.10;99.90
23143;DHT22;11740;51.168;4.112;2023-05-21T11:31:24;23.20;99.90
23143;DHT22;11740;51.168;4.112;2023-05-21T11:36:47;23.30;99.90
23143;DHT22;11740;51.168;4.112;2023-05-21T11:39:15;23.50;99.90
23143;DHT22;11740;51.168;4.112;2023-05-21T11:41:51;23.50;99.90
23143;DHT22;11740;51.168;4.112;2023-05-21T11:44:39;23.40;99.90
23143;DHT22;11740;51.168;4.112;2023-05-21T11:47:11;23.40;99.90
23143;DHT22;11740;51.168;4.112;2023-05-21T11:49:41;23.50;99.90
23143;DHT22;11740;51.168;4.112;2023-05-21T11:52:09;23.50;99.90
23143;DHT22;11740;51.168;4.112;2023-05-21T11:54:41;23.50;99.90
23143;DHT22;11740;51.168;4.112;2023-05-21T11:57:12;23.50;99.90
23143;DHT22;11740;51.168;4.112;2023-05-21T11:59:43;23.60;99.90
23143;DHT22;11740;51.168;4.112;2023-05-21T12:02:14;23.70;99.90
23143;DHT22;11740;51.168;4.112;2023-05-21T12:04:42;23.80;99.90
23143;DHT22;11740;51.168;4.112;2023-05-21T12:07:10;23.70;99.90
23143;DHT22;11740;51.168;4.112;2023-05-21T12:09:39;23.70;99.90
23143;DHT22;11740;51.168;4.112;2023-05-21T12:12:09;23.80;99.90
23143;DHT22;11740;51.168;4.112;2023-05-21T12:14:39;23.80;99.90
23143;DHT22;11740;51.168;4.112;2023-05-21T12:17:08;23.80;99.90
23143;DHT22;11740;51.168;4.112;2023-05-21T12:19:36;24.00;99.90
23143;DHT22;11740;51.168;4.112;2023-05-21T12:22:03;24.10;99.90
23143;DHT22;11740;51.168;4.112;2023-05-21T12:24:31;24.10;99.90
23143;DHT22;11740;51.168;4.112;2023-05-21T12:26:59;24.10;99.90
23143;DHT22;11740;51.168;4.112;2023-05-21T12:29:27;24.10;99.90
23143;DHT22;11740;51.168;4.112;2023-05-21T12:31:59;24.10;99.90
23143;DHT22;11740;51.168;4.112;2023-05-21T12:37:22;24.40;99.90
23143;DHT22;11740;51.168;4.112;2023-05-21T12:39:52;24.30;99.90
23143;DHT22;11740;51.168;4.112;2023-05-21T12:42:29;24.20;99.90
23143;DHT22;11740;51.168;4.112;2023-05-21T12:44:56;24.10;99.90
23143;DHT22;11740;51.168;4.112;2023-05-21T12:47:26;24.30;99.90
23143;DHT22;11740;51.168;4.112;2023-05-21T12:49:55;24.30;99.90
23143;DHT22;11740;51.168;4.112;2023-05-21T12:52:26;24.40;99.90
23143;DHT22;11740;51.168;4.112;2023-05-21T12:54:54;24.40;99.90
23143;DHT22;11740;51.168;4.112;2023-05-21T12:57:25;24.20;99.90
23143;DHT22;11740;51.168;4.112;2023-05-21T12:59:54;24.20;99.90
23143;DHT22;11740;51.168;4.112;2023-05-21T13:02:28;24.30;99.90
23143;DHT22;11740;51.168;4.112;2023-05-21T13:04:58;24.30;99.90
23143;DHT22;11740;51.168;4.112;2023-05-21T13:07:25;24.30;99.90
23143;DHT22;11740;51.168;4.112;2023-05-21T13:09:54;24.40;99.90
23143;DHT22;11740;51.168;4.112;2023-05-21T13:12:25;24.40;99.90
23143;DHT22;11740;51.168;4.112;2023-05-21T13:14:53;24.40;99.90
23143;DHT22;11740;51.168;4.112;2023-05-21T13:17:22;24.40;99.90
23143;DHT22;11740;51.168;4.112;2023-05-21T13:22:48;24.50;99.90
23143;DHT22;11740;51.168;4.112;2023-05-21T13:25:17;24.70;99.90
23143;DHT22;11740;51.168;4.112;2023-05-21T13:27:47;24.70;99.90
23143;DHT22;11740;51.168;4.112;2023-05-21T13:30:14;24.70;99.90
23143;DHT22;11740;51.168;4.112;2023-05-21T13:32:41;24.80;99.90
23143;DHT22;11740;51.168;4.112;2023-05-21T13:35:09;24.80;99.90
23143;DHT22;11740;51.168;4.112;2023-05-21T13:37:37;24.80;99.90
23143;DHT22;11740;51.168;4.112;2023-05-21T13:40:09;24.70;99.90
23143;DHT22;11740;51.168;4.112;2023-05-21T13:42:37;24.90;99.90
23143;DHT22;11740;51.168;4.112;2023-05-21T13:45:04;24.90;99.90
23143;DHT22;11740;51.168;4.112;2023-05-21T13:47:33;24.80;99.90
23143;DHT22;11740;51.168;4.112;2023-05-21T13:50:03;24.80;99.90
23143;DHT22;11740;51.168;4.112;2023-05-21T13:52:30;24.90;99.90
23143;DHT22;11740;51.168;4.112;2023-05-21T13:54:57;25.10;99.90
23143;DHT22;11740;51.168;4.112;2023-05-21T13:57:24;25.10;99.90
23143;DHT22;11740;51.168;4.112;2023-05-21T13:59:52;25.10;99.90
23143;DHT22;11740;51.168;4.112;2023-05-21T14:02:19;25.10;99.90
23143;DHT22;11740;51.168;4.112;2023-05-21T14:04:46;25.00;99.90
23143;DHT22;11740;51.168;4.112;2023-05-21T14:07:13;25.10;99.90
23143;DHT22;11740;51.168;4.112;2023-05-21T14:09:40;25.30;99.90
23143;DHT22;11740;51.168;4.112;2023-05-21T14:12:07;25.40;99.90
23143;DHT22;11740;51.168;4.112;2023-05-21T14:14:34;25.40;99.90
23143;DHT22;11740;51.168;4.112;2023-05-21T14:17:01;25.40;99.90
23143;DHT22;11740;51.168;4.112;2023-05-21T14:19:28;25.60;99.90
23143;DHT22;11740;51.168;4.112;2023-05-21T14:21:55;25.60;99.90
23143;DHT22;11740;51.168;4.112;2023-05-21T14:24:22;25.60;99.90
23143;DHT22;11740;51.168;4.112;2023-05-21T14:26:49;25.60;99.90
23143;DHT22;11740;51.168;4.112;2023-05-21T14:29:16;25.80;99.90
23143;DHT22;11740;51.168;4.112;2023-05-21T14:31:43;25.90;99.90
23143;DHT22;11740;51.168;4.112;2023-05-21T14:34:11;26.00;99.90
23143;DHT22;11740;51.168;4.112;2023-05-21T14:36:38;26.20;99.90
23143;DHT22;11740;51.168;4.112;2023-05-21T14:39:05;26.20;99.90
23143;DHT22;11740;51.168;4.112;2023-05-21T14:41:32;26.30;99.90
23143;DHT22;11740;51.168;4.112;2023-05-21T14:43:59;26.50;99.90
23143;DHT22;11740;51.168;4.112;2023-05-21T14:46:25;26.50;99.90
23143;DHT22;11740;51.168;4.112;2023-05-21T14:48:52;26.50;99.90
23143;DHT22;11740;51.168;4.112;2023-05-21T14:51:20;26.50;99.90
23143;DHT22;11740;51.168;4.112;2023-05-21T14:53:47;26.60;99.90
23143;DHT22;11740;51.168;4.112;2023-05-21T14:56:14;26.50;99.90
23143;DHT22;11740;51.168;4.112;2023-05-21T14:58:41;26.30;99.90
23143;DHT22;11740;51.168;4.112;2023-05-21T15:01:08;26.50;99.90
23143;DHT22;11740;51.168;4.112;2023-05-21T15:03:35;26.60;99.90
23143;DHT22;11740;51.168;4.112;2023-05-21T15:06:02;26.60;99.90
23143;DHT22;11740;51.168;4.112;2023-05-21T15:08:29;26.70;99.90
23143;DHT22;11740;51.168;4.112;2023-05-21T15:10:55;26.70;80.70
23143;DHT22;11740;51.168;4.112;2023-05-21T15:13:22;26.70;76.40
23143;DHT22;11740;51.168;4.112;2023-05-21T15:15:49;26.80;80.50
23143;DHT22;11740;51.168;4.112;2023-05-21T15:18:16;27.00;80.70
23143;DHT22;11740;51.168;4.112;2023-05-21T15:20:43;26.90;67.40
23143;DHT22;11740;51.168;4.112;2023-05-21T15:23:10;27.00;73.70
23143;DHT22;11740;51.168;4.112;2023-05-21T15:25:43;27.00;67.90
23143;DHT22;11740;51.168;4.112;2023-05-21T15:28:11;27.30;71.20
23143;DHT22;11740;51.168;4.112;2023-05-21T15:30:38;27.50;75.80
23143;DHT22;11740;51.168;4.112;2023-05-21T15:33:05;27.60;66.10
23143;DHT22;11740;51.168;4.112;2023-05-21T15:35:35;27.40;56.70
23143;DHT22;11740;51.168;4.112;2023-05-21T15:38:03;27.50;54.40
23143;DHT22;11740;51.168;4.112;2023-05-21T15:40:30;27.40;49.10
23143;DHT22;11740;51.168;4.112;2023-05-21T15:42:57;27.30;56.40
23143;DHT22;11740;51.168;4.112;2023-05-21T15:45:24;27.40;55.10
23143;DHT22;11740;51.168;4.112;2023-05-21T15:47:51;27.50;49.40
23143;DHT22;11740;51.168;4.112;2023-05-21T15:50:18;27.70;57.70
23143;DHT22;11740;51.168;4.112;2023-05-21T15:52:45;27.70;40.80
23143;DHT22;11740;51.168;4.112;2023-05-21T15:55:12;27.80;47.30
23143;DHT22;11740;51.168;4.112;2023-05-21T15:57:39;28.00;47.60
23143;DHT22;11740;51.168;4.112;2023-05-21T16:00:07;27.80;31.50
23143;DHT22;11740;51.168;4.112;2023-05-21T16:02:35;27.80;22.80
23143;DHT22;11740;51.168;4.112;2023-05-21T16:05:02;27.90;35.80